createdAt,value
2018-03-18T00:02:15.290Z,29.10
2018-03-18T00:04:41.967Z,29.40
2018-03-18T00:07:08.615Z,30.77
2018-03-18T00:09:35.595Z,28.87
2018-03-18T00:12:02.248Z,28.73
2018-03-18T00:14:28.903Z,26.77
2018-03-18T00:16:56.061Z,30.27
2018-03-18T00:19:22.711Z,27.60
2018-03-18T00:21:49.375Z,26.23
2018-03-18T00:24:16.590Z,27.87
2018-03-18T00:26:43.248Z,26.13
2018-03-18T00:29:09.899Z,27.33
2018-03-18T00:31:36.816Z,29.57
2018-03-18T00:34:03.487Z,28.03
2018-03-18T00:36:30.159Z,26.00
2018-03-18T00:38:57.354Z,26.30
2018-03-18T00:41:24.018Z,24.97
2018-03-18T00:43:50.721Z,22.07
2018-03-18T00:46:18.509Z,25.07
2018-03-18T00:48:45.174Z,25.45
2018-03-18T00:51:11.824Z,26.83
2018-03-18T00:53:38.728Z,25.07
2018-03-18T00:56:06.333Z,26.37
2018-03-18T00:58:32.992Z,24.80
2018-03-18T01:01:00.065Z,24.77
2018-03-18T01:03:26.715Z,23.87
2018-03-18T01:05:53.375Z,23.30
2018-03-18T01:08:20.421Z,22.77
2018-03-18T01:10:47.080Z,18.93
2018-03-18T01:13:13.738Z,19.23
2018-03-18T01:15:41.278Z,19.70
2018-03-18T01:18:07.928Z,23.50
2018-03-18T01:20:34.576Z,23.50
2018-03-18T01:23:01.500Z,22.57
2018-03-18T01:25:28.148Z,23.57
2018-03-18T01:27:54.815Z,24.10
2018-03-18T01:30:21.746Z,22.17
2018-03-18T01:32:48.392Z,19.70
2018-03-18T01:35:15.036Z,22.13
2018-03-18T01:37:41.958Z,22.17
2018-03-18T01:40:08.624Z,23.13
2018-03-18T01:42:35.285Z,22.80
2018-03-18T01:45:02.192Z,24.87
2018-03-18T01:47:28.848Z,23.73
2018-03-18T01:49:55.501Z,21.57
2018-03-18T01:52:22.416Z,22.30
2018-03-18T01:54:49.068Z,22.67
2018-03-18T01:57:16.553Z,22.87
2018-03-18T01:59:43.566Z,22.80
2018-03-18T02:02:10.216Z,24.87
2018-03-18T02:04:36.864Z,20.87
2018-03-18T02:07:03.798Z,21.53
2018-03-18T02:09:30.448Z,21.77
2018-03-18T02:11:57.124Z,19.00
2018-03-18T02:14:24.948Z,20.50
2018-03-18T02:16:51.605Z,23.93
2018-03-18T02:19:18.260Z,21.20
2018-03-18T02:21:45.167Z,21.80
2018-03-18T02:24:11.819Z,22.33
2018-03-18T02:26:38.472Z,20.90
2018-03-18T02:29:05.715Z,20.60
2018-03-18T02:31:32.369Z,23.43
2018-03-18T02:33:59.033Z,20.52
2018-03-18T02:36:25.885Z,20.53
2018-03-18T02:38:52.543Z,22.35
2018-03-18T02:41:19.212Z,21.58
2018-03-18T02:43:46.175Z,18.83
2018-03-18T02:46:12.824Z,19.70
2018-03-18T02:48:39.489Z,19.12
2018-03-18T02:51:06.411Z,19.62
2018-03-18T02:53:33.093Z,19.03
2018-03-18T02:55:59.760Z,21.02
2018-03-18T02:58:27.432Z,20.48
2018-03-18T03:00:54.077Z,19.57
2018-03-18T03:03:20.749Z,19.87
2018-03-18T03:05:47.785Z,20.12
2018-03-18T03:08:14.469Z,20.42
2018-03-18T03:10:41.125Z,21.00
2018-03-18T03:13:07.984Z,19.08
2018-03-18T03:15:34.649Z,21.70
2018-03-18T03:18:01.306Z,19.80
2018-03-18T03:20:28.246Z,19.90
2018-03-18T03:22:54.903Z,20.23
2018-03-18T03:25:21.572Z,20.12
2018-03-18T03:27:48.472Z,22.40
2018-03-18T03:30:15.139Z,20.40
2018-03-18T03:32:41.813Z,17.87
2018-03-18T03:35:08.827Z,21.77
2018-03-18T03:37:35.488Z,22.75
2018-03-18T03:40:02.156Z,22.00
2018-03-18T03:42:29.574Z,22.60
2018-03-18T03:44:56.228Z,22.30
2018-03-18T03:47:22.896Z,21.25
2018-03-18T03:49:50.084Z,24.77
2018-03-18T03:52:16.747Z,21.73
2018-03-18T03:54:43.399Z,24.08
2018-03-18T03:57:10.620Z,24.00
2018-03-18T03:59:37.899Z,25.33
2018-03-18T04:02:04.558Z,23.20
2018-03-18T04:04:31.458Z,22.30
2018-03-18T04:06:58.112Z,21.58
2018-03-18T04:09:24.764Z,23.80
2018-03-18T04:11:51.696Z,24.93
2018-03-18T04:14:18.357Z,22.42
2018-03-18T04:16:45.017Z,19.12
2018-03-18T04:19:12.093Z,25.42
2018-03-18T04:21:38.752Z,25.00
2018-03-18T04:24:05.436Z,26.30
2018-03-18T04:26:32.461Z,24.37
2018-03-18T04:28:59.120Z,20.23
2018-03-18T04:31:25.768Z,28.00
2018-03-18T04:33:52.738Z,26.15
2018-03-18T04:36:19.373Z,25.42
2018-03-18T04:38:46.044Z,23.50
2018-03-18T04:41:13.225Z,20.55
2018-03-18T04:43:39.895Z,25.50
2018-03-18T04:46:06.567Z,23.00
2018-03-18T04:48:33.876Z,23.85
2018-03-18T04:51:00.535Z,24.37
2018-03-18T04:53:27.206Z,25.50
2018-03-18T04:55:54.095Z,22.83
2018-03-18T04:58:20.759Z,26.90
2018-03-18T05:00:47.716Z,29.52
2018-03-18T05:03:14.528Z,26.73
2018-03-18T05:05:41.188Z,22.87
2018-03-18T05:08:07.853Z,28.17
2018-03-18T05:10:34.757Z,26.37
2018-03-18T05:13:01.418Z,24.75
2018-03-18T05:15:28.090Z,25.85
2018-03-18T05:17:54.985Z,26.73
2018-03-18T05:20:21.652Z,25.37
2018-03-18T05:22:48.322Z,20.50
2018-03-18T05:25:15.637Z,21.62
2018-03-18T05:27:42.295Z,22.35
2018-03-18T05:30:08.968Z,20.52
2018-03-18T05:32:35.752Z,21.42
2018-03-18T05:35:02.413Z,21.58
2018-03-18T05:37:29.080Z,17.45
2018-03-18T05:39:56.004Z,18.60
2018-03-18T05:42:22.669Z,19.23
2018-03-18T05:44:49.332Z,20.58
2018-03-18T05:47:16.516Z,20.67
2018-03-18T05:49:43.195Z,23.42
2018-03-18T05:52:09.856Z,20.52
2018-03-18T05:54:37.669Z,21.42
2018-03-18T05:57:04.331Z,21.75
2018-03-18T05:59:30.998Z,21.60
2018-03-18T06:01:58.508Z,21.90
2018-03-18T06:04:25.176Z,21.65
2018-03-18T06:06:51.836Z,22.90
2018-03-18T06:09:19.028Z,20.40
2018-03-18T06:11:45.688Z,19.40
2018-03-18T06:14:12.354Z,19.48
2018-03-18T06:16:39.276Z,19.85
2018-03-18T06:19:05.963Z,20.65
2018-03-18T06:21:32.624Z,20.33
2018-03-18T06:23:59.812Z,24.17
2018-03-18T06:26:26.466Z,20.52
2018-03-18T06:28:53.125Z,18.65
2018-03-18T06:31:20.045Z,24.30
2018-03-18T06:33:46.704Z,22.35
2018-03-18T06:36:13.388Z,23.98
2018-03-18T06:38:40.272Z,21.35
2018-03-18T06:41:06.930Z,20.33
2018-03-18T06:43:33.588Z,19.73
2018-03-18T06:46:00.503Z,21.00
2018-03-18T06:48:27.164Z,23.55
2018-03-18T06:50:53.850Z,19.45
2018-03-18T06:53:20.885Z,23.45
2018-03-18T06:55:47.539Z,21.02
2018-03-18T06:58:14.199Z,17.77
2018-03-18T07:00:41.267Z,22.25
2018-03-18T07:03:10.070Z,20.50
2018-03-18T07:05:36.746Z,20.15
2018-03-18T07:08:03.649Z,21.35
2018-03-18T07:10:30.318Z,20.02
2018-03-18T07:12:56.980Z,18.20
2018-03-18T07:15:24.189Z,16.87
2018-03-18T07:17:50.855Z,18.65
2018-03-18T07:20:17.508Z,19.17
2018-03-18T07:22:44.414Z,17.80
2018-03-18T07:25:11.072Z,17.17
2018-03-18T07:27:37.730Z,16.30
2018-03-18T07:30:04.638Z,19.48
2018-03-18T07:32:31.299Z,19.25
2018-03-18T07:34:57.949Z,21.03
2018-03-18T07:37:25.175Z,20.40
2018-03-18T07:39:51.840Z,20.95
2018-03-18T07:49:01.303Z,13.82
2018-03-18T07:51:27.960Z,15.13
2018-03-18T07:53:54.627Z,15.88
2018-03-18T07:56:21.816Z,16.23
2018-03-18T07:58:48.477Z,16.47
2018-03-18T08:01:15.132Z,15.20
2018-03-18T08:03:42.493Z,16.47
2018-03-18T08:06:09.152Z,16.70
2018-03-18T08:08:35.795Z,16.70
2018-03-18T08:11:03.379Z,15.90
2018-03-18T08:13:30.030Z,15.73
2018-03-18T08:15:56.675Z,16.43
2018-03-18T08:18:23.772Z,17.37
2018-03-18T08:20:50.429Z,15.50
2018-03-18T08:23:17.084Z,16.17
2018-03-18T08:25:44.303Z,14.90
2018-03-18T08:28:10.954Z,15.77
2018-03-18T08:30:37.603Z,17.00
2018-03-18T08:33:04.848Z,15.33
2018-03-18T08:35:31.501Z,14.83
2018-03-18T08:37:58.147Z,14.57
2018-03-18T08:40:25.274Z,14.70
2018-03-18T08:42:51.934Z,16.30
2018-03-18T08:45:18.575Z,15.70
2018-03-18T08:47:45.460Z,17.13
2018-03-18T08:50:12.115Z,15.40
2018-03-18T08:52:38.764Z,16.10
2018-03-18T08:55:05.833Z,15.73
2018-03-18T08:57:32.495Z,15.40
2018-03-18T08:59:59.161Z,16.53
2018-03-18T09:02:25.976Z,14.67
2018-03-18T09:04:53.034Z,15.07
2018-03-18T09:07:19.710Z,14.97
2018-03-18T09:09:46.928Z,15.50
2018-03-18T09:12:13.573Z,14.93
2018-03-18T09:14:40.236Z,15.60
2018-03-18T09:17:07.302Z,13.67
2018-03-18T09:19:33.954Z,13.17
2018-03-18T09:22:00.612Z,14.40
2018-03-18T09:24:27.674Z,14.40
2018-03-18T09:26:54.324Z,14.07
2018-03-18T09:29:20.976Z,14.37
2018-03-18T09:31:48.212Z,14.40
2018-03-18T09:34:14.881Z,13.07
2018-03-18T09:36:41.532Z,14.50
2018-03-18T09:39:08.402Z,13.63
2018-03-18T09:41:35.047Z,14.40
2018-03-18T09:44:01.700Z,14.37
2018-03-18T09:46:28.665Z,13.30
2018-03-18T09:48:55.310Z,13.67
2018-03-18T09:51:21.973Z,12.63
2018-03-18T09:53:49.106Z,11.70
2018-03-18T09:56:15.753Z,14.23
2018-03-18T09:58:42.408Z,11.70
2018-03-18T10:01:09.374Z,13.87
2018-03-18T10:03:36.030Z,13.40
2018-03-18T10:06:03.545Z,14.23
2018-03-18T10:08:30.587Z,14.50
2018-03-18T10:10:57.244Z,13.93
2018-03-18T10:13:23.913Z,13.37
2018-03-18T10:15:50.825Z,12.73
2018-03-18T10:18:17.463Z,14.07
2018-03-18T10:20:44.129Z,12.23
2018-03-18T10:23:11.352Z,15.00
2018-03-18T10:25:38.045Z,14.27
2018-03-18T10:28:04.663Z,15.17
2018-03-18T10:30:31.578Z,14.23
2018-03-18T10:32:58.229Z,13.47
2018-03-18T10:35:24.873Z,12.97
2018-03-18T10:37:51.809Z,13.57
2018-03-18T10:40:18.460Z,13.10
2018-03-18T10:42:45.107Z,14.40
2018-03-18T10:45:12.657Z,14.37
2018-03-18T10:47:39.299Z,13.13
2018-03-18T10:50:05.956Z,13.73
2018-03-18T10:52:32.884Z,51.20
2018-03-18T10:54:59.541Z,12.77
2018-03-18T10:57:26.181Z,14.30
2018-03-18T10:59:53.049Z,12.60
2018-03-18T11:02:21.547Z,11.97
2018-03-18T11:04:48.204Z,13.13
2018-03-18T11:07:16.790Z,14.10
2018-03-18T11:09:43.444Z,15.17
2018-03-18T11:12:10.092Z,14.47
2018-03-18T11:14:36.952Z,12.97
2018-03-18T11:17:03.604Z,12.23
2018-03-18T11:19:30.250Z,12.77
2018-03-18T11:21:57.191Z,10.40
2018-03-18T11:24:23.857Z,12.10
2018-03-18T11:26:50.516Z,12.87
2018-03-18T11:29:17.605Z,12.97
2018-03-18T11:31:44.256Z,12.33
2018-03-18T11:34:26.155Z,12.60
2018-03-18T11:36:52.804Z,9.93
2018-03-18T11:39:19.462Z,12.77
2018-03-18T11:41:46.387Z,12.60
2018-03-18T11:44:13.043Z,12.07
2018-03-18T11:46:39.708Z,12.10
2018-03-18T11:49:07.008Z,11.60
2018-03-18T11:51:33.665Z,10.87
2018-03-18T11:54:00.314Z,13.73
2018-03-18T11:56:27.152Z,12.70
2018-03-18T11:58:53.808Z,11.40
2018-03-18T12:01:20.493Z,11.00
2018-03-18T12:03:48.306Z,14.27
2018-03-18T12:06:14.976Z,12.07
2018-03-18T12:08:48.253Z,12.23
2018-03-18T12:11:15.605Z,10.87
2018-03-18T12:13:42.254Z,11.87
2018-03-18T12:16:08.912Z,10.30
2018-03-18T12:18:36.136Z,11.10
2018-03-18T12:21:02.790Z,10.90
2018-03-18T12:23:29.446Z,12.83
2018-03-18T12:25:56.364Z,11.67
2018-03-18T12:28:23.026Z,12.33
2018-03-18T12:30:49.688Z,11.80
2018-03-18T12:33:16.589Z,12.40
2018-03-18T12:35:43.251Z,11.30
2018-03-18T12:38:09.911Z,10.07
2018-03-18T12:40:36.825Z,10.57
2018-03-18T12:43:09.402Z,9.87
2018-03-18T12:45:36.073Z,13.30
2018-03-18T12:48:03.032Z,11.90
2018-03-18T12:50:29.695Z,10.83
2018-03-18T12:52:56.349Z,11.40
2018-03-18T12:55:23.417Z,11.27
2018-03-18T12:57:50.072Z,10.80
2018-03-18T13:00:16.721Z,11.73
2018-03-18T13:02:43.628Z,10.30
2018-03-18T13:05:10.276Z,10.83
2018-03-18T13:07:36.924Z,10.63
2018-03-18T13:10:04.498Z,11.80
2018-03-18T13:12:31.152Z,10.17
2018-03-18T13:14:57.808Z,9.67
2018-03-18T13:17:24.729Z,10.10
2018-03-18T13:19:51.390Z,10.20
2018-03-18T13:22:18.058Z,11.33
2018-03-18T13:24:45.326Z,10.03
2018-03-18T13:27:11.933Z,9.90
2018-03-18T13:29:38.575Z,9.80
2018-03-18T13:32:05.485Z,10.10
2018-03-18T13:34:32.138Z,10.63
2018-03-18T13:36:58.862Z,10.17
2018-03-18T13:39:26.336Z,12.47
2018-03-18T13:41:52.997Z,12.30
2018-03-18T13:44:19.644Z,9.77
2018-03-18T13:46:46.572Z,13.10
2018-03-18T13:49:13.221Z,9.20
2018-03-18T13:51:39.877Z,10.13
2018-03-18T13:54:07.102Z,9.53
2018-03-18T13:56:33.763Z,10.53
2018-03-18T13:59:00.407Z,9.17
2018-03-18T14:01:27.368Z,9.60
2018-03-18T14:03:54.037Z,10.50
2018-03-18T14:06:20.701Z,11.60
2018-03-18T14:08:47.877Z,10.03
2018-03-18T14:11:14.836Z,9.43
2018-03-18T14:13:41.485Z,9.47
2018-03-18T14:16:08.419Z,9.53
2018-03-18T14:18:35.063Z,9.40
2018-03-18T14:21:01.717Z,10.43
2018-03-18T14:23:28.637Z,10.03
2018-03-18T14:25:55.287Z,10.20
2018-03-18T14:28:21.944Z,10.57
2018-03-18T14:30:48.873Z,9.80
2018-03-18T14:33:15.515Z,9.73
2018-03-18T14:35:42.178Z,10.07
2018-03-18T14:38:09.096Z,9.50
2018-03-18T14:40:35.739Z,9.10
2018-03-18T14:43:02.383Z,9.77
2018-03-18T14:45:29.313Z,9.73
2018-03-18T14:47:55.977Z,10.10
2018-03-18T14:50:22.652Z,11.10
2018-03-18T14:52:49.545Z,9.87
2018-03-18T14:55:16.194Z,11.07
2018-03-18T14:57:42.853Z,13.00
2018-03-18T15:00:09.801Z,10.23
2018-03-18T15:02:36.451Z,10.03
2018-03-18T15:05:03.180Z,10.50
2018-03-18T15:07:30.014Z,10.80
2018-03-18T15:09:56.682Z,10.87
2018-03-18T15:12:24.847Z,10.23
2018-03-18T15:14:51.796Z,9.33
2018-03-18T15:17:18.439Z,9.93
2018-03-18T15:19:45.085Z,9.93
2018-03-18T15:22:12.316Z,10.03
2018-03-18T15:24:38.965Z,11.70
2018-03-18T15:27:05.634Z,10.90
2018-03-18T15:29:32.521Z,10.20
2018-03-18T15:31:59.172Z,10.77
2018-03-18T15:34:25.825Z,10.67
2018-03-18T15:36:52.780Z,10.10
2018-03-18T15:39:19.444Z,10.33
2018-03-18T15:41:46.089Z,10.37
2018-03-18T15:44:12.956Z,10.87
2018-03-18T15:46:39.634Z,11.60
2018-03-18T15:49:06.286Z,9.40
2018-03-18T15:51:33.545Z,11.20
2018-03-18T15:54:00.207Z,10.90
2018-03-18T15:56:26.852Z,28.13
2018-03-18T15:58:53.772Z,12.70
2018-03-18T16:01:20.566Z,9.77
2018-03-18T16:03:47.088Z,10.37
2018-03-18T16:06:14.516Z,10.70
2018-03-18T16:08:41.165Z,10.20
2018-03-18T16:11:07.811Z,11.03
2018-03-18T16:13:36.080Z,12.00
2018-03-18T16:16:02.732Z,10.13
2018-03-18T16:18:29.413Z,11.83
2018-03-18T16:20:56.384Z,10.60
2018-03-18T16:23:23.065Z,11.43
2018-03-18T16:25:49.703Z,9.53
2018-03-18T16:28:17.352Z,10.43
2018-03-18T16:30:50.131Z,9.30
2018-03-18T16:33:16.802Z,10.00
2018-03-18T16:35:44.027Z,9.87
2018-03-18T16:38:10.672Z,10.40
2018-03-18T16:40:37.320Z,10.87
2018-03-18T16:43:04.368Z,11.77
2018-03-18T16:45:31.028Z,10.80
2018-03-18T16:47:57.952Z,11.10
2018-03-18T16:50:24.992Z,9.07
2018-03-18T16:52:51.645Z,10.27
2018-03-18T16:55:18.304Z,11.20
2018-03-18T16:57:45.170Z,10.90
2018-03-18T17:00:11.838Z,11.53
2018-03-18T17:02:38.490Z,11.40
2018-03-18T17:05:05.666Z,11.57
2018-03-18T17:07:32.392Z,12.90
2018-03-18T17:09:59.567Z,11.87
2018-03-18T17:12:26.505Z,13.60
2018-03-18T17:14:53.521Z,11.83
2018-03-18T17:17:20.205Z,12.47
2018-03-18T17:19:47.352Z,10.70
2018-03-18T17:22:14.112Z,12.07
2018-03-18T17:24:40.822Z,11.67
2018-03-18T17:27:08.098Z,15.03
2018-03-18T17:29:34.806Z,12.27
2018-03-18T17:32:01.744Z,12.57
2018-03-18T17:34:28.943Z,12.43
2018-03-18T17:36:55.643Z,14.17
2018-03-18T17:39:22.363Z,13.30
2018-03-18T17:41:49.786Z,15.67
2018-03-18T17:44:22.222Z,12.67
2018-03-18T17:46:55.286Z,13.40
2018-03-18T17:49:27.797Z,11.47
2018-03-18T17:52:00.614Z,14.97
2018-03-18T17:54:32.963Z,13.17
2018-03-18T17:56:59.611Z,12.80
2018-03-18T17:59:26.677Z,14.37
2018-03-18T18:01:53.335Z,12.17
2018-03-18T18:04:20.008Z,12.17
2018-03-18T18:06:46.907Z,12.53
2018-03-18T18:09:13.572Z,13.80
2018-03-18T18:11:40.226Z,12.93
2018-03-18T18:14:07.293Z,13.47
2018-03-18T18:16:34.131Z,10.97
2018-03-18T18:19:00.790Z,15.20
2018-03-18T18:21:27.702Z,14.00
2018-03-18T18:23:54.363Z,14.80
2018-03-18T18:26:21.030Z,16.67
2018-03-18T18:28:48.306Z,13.97
2018-03-18T18:31:15.016Z,14.87
2018-03-18T18:33:42.237Z,14.73
2018-03-18T18:36:09.881Z,14.37
2018-03-18T18:38:36.552Z,14.10
2018-03-18T18:41:03.260Z,15.17
2018-03-18T18:43:30.723Z,13.73
2018-03-18T18:45:57.364Z,15.20
2018-03-18T18:48:24.012Z,14.23
2018-03-18T18:50:51.082Z,14.70
2018-03-18T18:53:17.747Z,13.30
2018-03-18T18:55:44.436Z,12.93
2018-03-18T18:58:11.656Z,13.93
2018-03-18T19:00:38.317Z,13.03
2018-03-18T19:03:05.060Z,13.07
2018-03-18T19:05:32.146Z,12.00
2018-03-18T19:07:58.810Z,13.37
2018-03-18T19:10:25.532Z,11.10
2018-03-18T19:12:52.998Z,11.43
2018-03-18T19:15:19.641Z,13.23
2018-03-18T19:17:47.480Z,11.80
2018-03-18T19:20:14.368Z,9.87
2018-03-18T19:22:41.025Z,10.70
2018-03-18T19:25:07.696Z,10.83
2018-03-18T19:27:35.272Z,10.07
2018-03-18T19:30:01.951Z,11.67
2018-03-18T19:32:28.613Z,10.97
2018-03-18T19:34:55.492Z,11.50
2018-03-18T19:37:22.152Z,11.57
2018-03-18T19:39:48.837Z,11.13
2018-03-18T19:42:15.966Z,12.30
2018-03-18T19:44:42.611Z,9.47
2018-03-18T19:47:09.501Z,10.53
2018-03-18T19:49:36.564Z,9.80
2018-03-18T19:52:03.221Z,11.43
2018-03-18T19:54:29.904Z,9.50
2018-03-18T19:56:57.115Z,8.53
2018-03-18T19:59:23.779Z,9.50
2018-03-18T20:01:50.448Z,8.97
2018-03-18T20:04:17.660Z,8.60
2018-03-18T20:06:44.318Z,8.00
2018-03-18T20:09:10.965Z,7.00
2018-03-18T20:11:37.880Z,8.83
2018-03-18T20:14:04.529Z,8.27
2018-03-18T20:16:31.180Z,9.07
2018-03-18T20:18:58.417Z,8.47
2018-03-18T20:21:25.064Z,9.57
2018-03-18T20:23:51.705Z,9.17
2018-03-18T20:26:18.548Z,16.83
2018-03-18T20:28:45.193Z,7.47
2018-03-18T20:31:11.833Z,7.37
2018-03-18T20:33:38.869Z,8.57
2018-03-18T20:36:05.521Z,9.63
2018-03-18T20:38:32.176Z,9.18
2018-03-18T20:40:59.411Z,8.37
2018-03-18T20:43:26.063Z,7.00
2018-03-18T20:45:52.713Z,7.37
2018-03-18T20:48:19.628Z,9.60
2018-03-18T20:50:46.279Z,7.30
2018-03-18T20:53:13.210Z,7.50
2018-03-18T20:55:40.178Z,7.53
2018-03-18T20:58:06.833Z,7.10
2018-03-18T21:00:34.538Z,7.33
2018-03-18T21:03:01.577Z,7.23
2018-03-18T21:05:28.236Z,7.70
2018-03-18T21:07:54.897Z,8.27
2018-03-18T21:10:22.167Z,7.97
2018-03-18T21:12:48.821Z,8.80
2018-03-18T21:15:15.464Z,7.80
2018-03-18T21:17:42.409Z,8.40
2018-03-18T21:20:09.616Z,8.00
2018-03-18T21:22:36.268Z,7.27
2018-03-18T21:25:03.246Z,9.33
2018-03-18T21:27:29.892Z,8.40
2018-03-18T21:29:56.532Z,7.70
2018-03-18T21:32:23.477Z,7.77
2018-03-18T21:34:50.125Z,8.87
2018-03-18T21:37:16.793Z,53.97
2018-03-18T21:39:44.013Z,9.97
2018-03-18T21:42:10.670Z,8.57
2018-03-18T21:44:37.322Z,8.43
2018-03-18T21:47:04.274Z,8.80
2018-03-18T21:49:30.913Z,8.55
2018-03-18T21:51:57.588Z,9.17
2018-03-18T21:54:24.765Z,9.73
2018-03-18T21:56:51.419Z,7.37
2018-03-18T21:59:18.071Z,8.10
2018-03-18T22:01:44.908Z,6.82
2018-03-18T22:04:11.749Z,7.90
2018-03-18T22:06:38.396Z,9.20
2018-03-18T22:09:05.383Z,8.15
2018-03-18T22:11:32.043Z,7.22
2018-03-18T22:13:58.707Z,7.90
2018-03-18T22:16:25.779Z,7.63
2018-03-18T22:18:52.646Z,7.00
2018-03-18T22:21:19.596Z,7.30
2018-03-18T22:23:46.607Z,7.80
2018-03-18T22:26:13.254Z,8.10
2018-03-18T22:28:39.909Z,6.93
2018-03-18T22:31:06.846Z,8.48
2018-03-18T22:33:33.489Z,6.90
2018-03-18T22:36:00.145Z,8.23
2018-03-18T22:38:27.081Z,7.20
2018-03-18T22:40:53.731Z,8.00
2018-03-18T22:43:20.391Z,8.52
2018-03-18T22:45:47.312Z,8.83
2018-03-18T22:48:13.972Z,7.12
2018-03-18T22:50:40.636Z,8.55
2018-03-18T22:53:07.844Z,11.85
2018-03-18T22:55:34.513Z,10.98
2018-03-18T22:58:01.160Z,10.13
2018-03-18T23:00:28.380Z,7.85
2018-03-18T23:02:55.036Z,7.93
2018-03-18T23:05:21.684Z,7.23
2018-03-18T23:07:48.608Z,8.13
2018-03-18T23:10:15.286Z,8.85
2018-03-18T23:12:41.938Z,8.10
2018-03-18T23:15:09.105Z,7.23
2018-03-18T23:17:35.771Z,7.70
2018-03-18T23:20:02.425Z,7.90
2018-03-18T23:22:29.917Z,8.00
2018-03-18T23:24:56.584Z,7.07
2018-03-18T23:27:23.240Z,7.30
2018-03-18T23:29:50.219Z,8.05
2018-03-18T23:32:16.892Z,8.73
2018-03-18T23:34:43.544Z,7.45
2018-03-18T23:37:10.527Z,9.67
2018-03-18T23:39:37.181Z,10.40
2018-03-18T23:42:03.831Z,8.27
2018-03-18T23:44:30.677Z,6.80
2018-03-18T23:53:40.194Z,8.48
2018-03-18T23:56:06.844Z,7.00
2018-03-18T23:58:33.500Z,9.33
